sensor_id;sensor_type;location;lat;lon;timestamp;P1;durP1;ratioP1;P2;durP2;ratioP2
72132;SDS011;60008;50.826;6.896;2023-09-18T00:02:28;7.00;;;3.72;;
72132;SDS011;60008;50.826;6.896;2023-09-18T00:05:15;6.45;;;3.88;;
72132;SDS011;60008;50.826;6.896;2023-09-18T00:08:13;6.72;;;3.90;;
72132;SDS011;60008;50.826;6.896;2023-09-18T00:11:13;7.73;;;3.90;;
72132;SDS011;60008;50.826;6.896;2023-09-18T00:14:05;9.85;;;4.18;;
72132;SDS011;60008;50.826;6.896;2023-09-18T00:16:52;8.02;;;4.10;;
72132;SDS011;60008;50.826;6.896;2023-09-18T00:19:44;9.27;;;4.00;;
72132;SDS011;60008;50.826;6.896;2023-09-18T00:22:30;7.50;;;3.60;;
72132;SDS011;60008;50.826;6.896;2023-09-18T00:25:22;9.20;;;3.90;;
72132;SDS011;60008;50.826;6.896;2023-09-18T00:28:08;6.05;;;3.75;;
72132;SDS011;60008;50.826;6.896;2023-09-18T00:31:00;8.13;;;3.85;;
72132;SDS011;60008;50.826;6.896;2023-09-18T00:33:45;7.35;;;3.40;;
72132;SDS011;60008;50.826;6.896;2023-09-18T00:36:37;7.30;;;3.60;;
72132;SDS011;60008;50.826;6.896;2023-09-18T00:39:23;8.63;;;3.60;;
72132;SDS011;60008;50.826;6.896;2023-09-18T00:42:14;8.23;;;3.58;;
72132;SDS011;60008;50.826;6.896;2023-09-18T00:45:07;7.93;;;4.00;;
72132;SDS011;60008;50.826;6.896;2023-09-18T00:48:00;6.03;;;3.45;;
72132;SDS011;60008;50.826;6.896;2023-09-18T00:50:45;8.10;;;3.70;;
72132;SDS011;60008;50.826;6.896;2023-09-18T00:53:37;7.70;;;3.40;;
72132;SDS011;60008;50.826;6.896;2023-09-18T00:56:29;10.60;;;3.88;;
72132;SDS011;60008;50.826;6.896;2023-09-18T00:59:14;8.02;;;3.75;;
72132;SDS011;60008;50.826;6.896;2023-09-18T01:02:06;7.90;;;3.65;;
72132;SDS011;60008;50.826;6.896;2023-09-18T01:04:51;8.82;;;3.70;;
72132;SDS011;60008;50.826;6.896;2023-09-18T01:07:43;7.20;;;4.03;;
72132;SDS011;60008;50.826;6.896;2023-09-18T01:10:38;7.53;;;3.47;;
72132;SDS011;60008;50.826;6.896;2023-09-18T01:13:51;6.30;;;3.50;;
72132;SDS011;60008;50.826;6.896;2023-09-18T01:16:50;8.55;;;4.25;;
72132;SDS011;60008;50.826;6.896;2023-09-18T01:19:47;7.70;;;3.78;;
72132;SDS011;60008;50.826;6.896;2023-09-18T01:22:32;10.20;;;4.37;;
72132;SDS011;60008;50.826;6.896;2023-09-18T01:25:24;8.05;;;4.45;;
72132;SDS011;60008;50.826;6.896;2023-09-18T01:28:09;7.28;;;3.70;;
72132;SDS011;60008;50.826;6.896;2023-09-18T01:31:01;5.85;;;3.55;;
72132;SDS011;60008;50.826;6.896;2023-09-18T01:33:46;10.00;;;3.80;;
72132;SDS011;60008;50.826;6.896;2023-09-18T01:36:38;8.80;;;3.67;;
72132;SDS011;60008;50.826;6.896;2023-09-18T01:39:23;7.82;;;4.00;;
72132;SDS011;60008;50.826;6.896;2023-09-18T01:42:18;8.13;;;4.10;;
72132;SDS011;60008;50.826;6.896;2023-09-18T01:45:11;7.50;;;4.00;;
72132;SDS011;60008;50.826;6.896;2023-09-18T01:47:56;7.53;;;4.25;;
72132;SDS011;60008;50.826;6.896;2023-09-18T01:50:48;11.23;;;3.67;;
72132;SDS011;60008;50.826;6.896;2023-09-18T01:53:33;7.00;;;3.88;;
72132;SDS011;60008;50.826;6.896;2023-09-18T01:56:24;9.18;;;4.47;;
72132;SDS011;60008;50.826;6.896;2023-09-18T01:59:19;8.65;;;4.20;;
72132;SDS011;60008;50.826;6.896;2023-09-18T02:02:13;10.68;;;4.03;;
72132;SDS011;60008;50.826;6.896;2023-09-18T02:05:24;8.10;;;4.23;;
72132;SDS011;60008;50.826;6.896;2023-09-18T02:08:15;7.40;;;4.18;;
72132;SDS011;60008;50.826;6.896;2023-09-18T02:11:13;11.18;;;4.63;;
72132;SDS011;60008;50.826;6.896;2023-09-18T02:14:05;13.63;;;5.05;;
72132;SDS011;60008;50.826;6.896;2023-09-18T02:16:52;14.00;;;5.18;;
72132;SDS011;60008;50.826;6.896;2023-09-18T02:19:45;8.23;;;4.47;;
72132;SDS011;60008;50.826;6.896;2023-09-18T02:22:33;9.68;;;4.35;;
72132;SDS011;60008;50.826;6.896;2023-09-18T02:25:25;11.68;;;4.60;;
72132;SDS011;60008;50.826;6.896;2023-09-18T02:28:17;8.98;;;4.55;;
72132;SDS011;60008;50.826;6.896;2023-09-18T02:31:09;12.68;;;4.45;;
72132;SDS011;60008;50.826;6.896;2023-09-18T02:34:01;9.63;;;4.43;;
72132;SDS011;60008;50.826;6.896;2023-09-18T02:36:46;7.93;;;4.40;;
72132;SDS011;60008;50.826;6.896;2023-09-18T02:39:38;10.93;;;4.70;;
72132;SDS011;60008;50.826;6.896;2023-09-18T02:42:23;8.68;;;4.32;;
72132;SDS011;60008;50.826;6.896;2023-09-18T02:45:15;8.07;;;4.10;;
72132;SDS011;60008;50.826;6.896;2023-09-18T02:48:00;10.23;;;4.33;;
72132;SDS011;60008;50.826;6.896;2023-09-18T02:50:52;10.73;;;4.90;;
72132;SDS011;60008;50.826;6.896;2023-09-18T02:53:47;9.07;;;4.40;;
72132;SDS011;60008;50.826;6.896;2023-09-18T02:56:33;7.90;;;4.22;;
72132;SDS011;60008;50.826;6.896;2023-09-18T02:59:24;10.07;;;4.25;;
72132;SDS011;60008;50.826;6.896;2023-09-18T03:02:16;12.87;;;4.37;;
72132;SDS011;60008;50.826;6.896;2023-09-18T03:05:01;10.32;;;4.38;;
72132;SDS011;60008;50.826;6.896;2023-09-18T03:07:53;10.23;;;4.25;;
72132;SDS011;60008;50.826;6.896;2023-09-18T03:10:44;11.88;;;4.82;;
72132;SDS011;60008;50.826;6.896;2023-09-18T03:13:36;8.68;;;4.15;;
72132;SDS011;60008;50.826;6.896;2023-09-18T03:16:28;13.23;;;4.33;;
72132;SDS011;60008;50.826;6.896;2023-09-18T03:19:16;11.68;;;3.80;;
72132;SDS011;60008;50.826;6.896;2023-09-18T03:22:08;10.68;;;4.10;;
72132;SDS011;60008;50.826;6.896;2023-09-18T03:24:53;10.75;;;3.95;;
72132;SDS011;60008;50.826;6.896;2023-09-18T03:27:45;8.98;;;3.63;;
72132;SDS011;60008;50.826;6.896;2023-09-18T03:30:30;9.87;;;3.37;;
72132;SDS011;60008;50.826;6.896;2023-09-18T03:33:22;8.80;;;3.45;;
72132;SDS011;60008;50.826;6.896;2023-09-18T03:36:07;10.10;;;2.40;;
72132;SDS011;60008;50.826;6.896;2023-09-18T03:39:01;9.20;;;2.97;;
72132;SDS011;60008;50.826;6.896;2023-09-18T03:41:47;9.93;;;2.55;;
72132;SDS011;60008;50.826;6.896;2023-09-18T03:44:38;12.10;;;2.77;;
72132;SDS011;60008;50.826;6.896;2023-09-18T03:47:23;9.23;;;2.80;;
72132;SDS011;60008;50.826;6.896;2023-09-18T03:50:15;11.82;;;2.53;;
72132;SDS011;60008;50.826;6.896;2023-09-18T03:53:00;6.60;;;2.50;;
72132;SDS011;60008;50.826;6.896;2023-09-18T03:55:52;9.23;;;2.65;;
72132;SDS011;60008;50.826;6.896;2023-09-18T03:58:37;11.47;;;2.50;;
72132;SDS011;60008;50.826;6.896;2023-09-18T04:01:29;12.43;;;2.60;;
72132;SDS011;60008;50.826;6.896;2023-09-18T04:04:14;11.75;;;2.70;;
72132;SDS011;60008;50.826;6.896;2023-09-18T04:07:06;7.20;;;2.55;;
72132;SDS011;60008;50.826;6.896;2023-09-18T04:09:52;10.27;;;2.72;;
72132;SDS011;60008;50.826;6.896;2023-09-18T04:12:50;11.60;;;2.90;;
72132;SDS011;60008;50.826;6.896;2023-09-18T04:15:36;7.93;;;2.47;;
72132;SDS011;60008;50.826;6.896;2023-09-18T04:18:30;8.95;;;2.63;;
72132;SDS011;60008;50.826;6.896;2023-09-18T04:21:21;8.25;;;2.80;;
72132;SDS011;60008;50.826;6.896;2023-09-18T04:24:06;7.93;;;2.25;;
72132;SDS011;60008;50.826;6.896;2023-09-18T04:26:58;9.60;;;3.10;;
72132;SDS011;60008;50.826;6.896;2023-09-18T04:29:43;10.07;;;2.75;;
72132;SDS011;60008;50.826;6.896;2023-09-18T04:32:37;10.20;;;2.60;;
72132;SDS011;60008;50.826;6.896;2023-09-18T04:35:23;11.60;;;2.70;;
72132;SDS011;60008;50.826;6.896;2023-09-18T04:38:16;9.98;;;3.40;;
72132;SDS011;60008;50.826;6.896;2023-09-18T04:41:04;12.43;;;3.10;;
72132;SDS011;60008;50.826;6.896;2023-09-18T04:43:55;7.72;;;2.80;;
72132;SDS011;60008;50.826;6.896;2023-09-18T04:46:40;9.20;;;2.80;;
72132;SDS011;60008;50.826;6.896;2023-09-18T04:49:33;10.02;;;2.78;;
72132;SDS011;60008;50.826;6.896;2023-09-18T04:52:18;8.02;;;3.03;;
72132;SDS011;60008;50.826;6.896;2023-09-18T04:55:10;10.33;;;3.20;;
72132;SDS011;60008;50.826;6.896;2023-09-18T04:57:56;9.00;;;2.97;;
72132;SDS011;60008;50.826;6.896;2023-09-18T05:00:59;8.32;;;2.88;;
72132;SDS011;60008;50.826;6.896;2023-09-18T05:03:51;7.93;;;3.00;;
72132;SDS011;60008;50.826;6.896;2023-09-18T05:06:44;9.20;;;3.10;;
72132;SDS011;60008;50.826;6.896;2023-09-18T05:09:50;8.50;;;3.17;;
72132;SDS011;60008;50.826;6.896;2023-09-18T05:12:38;9.05;;;3.08;;
72132;SDS011;60008;50.826;6.896;2023-09-18T05:15:30;8.95;;;3.20;;
72132;SDS011;60008;50.826;6.896;2023-09-18T05:18:15;6.15;;;2.60;;
72132;SDS011;60008;50.826;6.896;2023-09-18T05:21:08;9.35;;;3.45;;
72132;SDS011;60008;50.826;6.896;2023-09-18T05:23:54;8.83;;;2.90;;
72132;SDS011;60008;50.826;6.896;2023-09-18T05:26:45;8.90;;;3.33;;
72132;SDS011;60008;50.826;6.896;2023-09-18T05:29:30;7.22;;;2.55;;
72132;SDS011;60008;50.826;6.896;2023-09-18T05:32:22;11.65;;;2.60;;
72132;SDS011;60008;50.826;6.896;2023-09-18T05:35:14;7.25;;;2.33;;
72132;SDS011;60008;50.826;6.896;2023-09-18T05:38:06;10.47;;;2.80;;
72132;SDS011;60008;50.826;6.896;2023-09-18T05:40:57;4.97;;;1.77;;
72132;SDS011;60008;50.826;6.896;2023-09-18T05:43:49;6.60;;;2.25;;
72132;SDS011;60008;50.826;6.896;2023-09-18T05:46:41;6.82;;;2.22;;
72132;SDS011;60008;50.826;6.896;2023-09-18T05:49:33;11.77;;;2.50;;
72132;SDS011;60008;50.826;6.896;2023-09-18T05:52:19;9.50;;;2.97;;
72132;SDS011;60008;50.826;6.896;2023-09-18T05:55:13;7.40;;;2.40;;
72132;SDS011;60008;50.826;6.896;2023-09-18T05:58:00;8.10;;;2.53;;
72132;SDS011;60008;50.826;6.896;2023-09-18T06:00:52;10.20;;;2.10;;
72132;SDS011;60008;50.826;6.896;2023-09-18T06:03:37;5.30;;;2.00;;
72132;SDS011;60008;50.826;6.896;2023-09-18T06:06:28;5.43;;;2.00;;
72132;SDS011;60008;50.826;6.896;2023-09-18T06:09:20;8.02;;;1.48;;
72132;SDS011;60008;50.826;6.896;2023-09-18T06:12:18;6.93;;;1.70;;
72132;SDS011;60008;50.826;6.896;2023-09-18T06:15:10;7.97;;;1.60;;
72132;SDS011;60008;50.826;6.896;2023-09-18T06:17:56;9.70;;;1.90;;
72132;SDS011;60008;50.826;6.896;2023-09-18T06:20:47;11.73;;;1.60;;
72132;SDS011;60008;50.826;6.896;2023-09-18T06:23:33;6.38;;;1.90;;
72132;SDS011;60008;50.826;6.896;2023-09-18T06:26:24;4.45;;;1.30;;
72132;SDS011;60008;50.826;6.896;2023-09-18T06:29:09;7.72;;;1.55;;
72132;SDS011;60008;50.826;6.896;2023-09-18T06:32:01;2.83;;;1.30;;
72132;SDS011;60008;50.826;6.896;2023-09-18T06:34:46;5.57;;;1.40;;
72132;SDS011;60008;50.826;6.896;2023-09-18T06:37:38;5.63;;;1.30;;
72132;SDS011;60008;50.826;6.896;2023-09-18T06:40:24;7.78;;;1.67;;
72132;SDS011;60008;50.826;6.896;2023-09-18T06:43:16;4.55;;;1.13;;
72132;SDS011;60008;50.826;6.896;2023-09-18T06:46:08;3.50;;;0.98;;
72132;SDS011;60008;50.826;6.896;2023-09-18T06:48:53;2.07;;;0.73;;
72132;SDS011;60008;50.826;6.896;2023-09-18T06:51:45;5.70;;;1.30;;
72132;SDS011;60008;50.826;6.896;2023-09-18T06:54:30;5.03;;;1.20;;
72132;SDS011;60008;50.826;6.896;2023-09-18T06:57:21;4.25;;;1.13;;
72132;SDS011;60008;50.826;6.896;2023-09-18T07:00:06;3.75;;;1.00;;
72132;SDS011;60008;50.826;6.896;2023-09-18T07:02:58;3.23;;;0.80;;
72132;SDS011;60008;50.826;6.896;2023-09-18T07:05:43;3.40;;;0.70;;
72132;SDS011;60008;50.826;6.896;2023-09-18T07:08:35;2.40;;;0.90;;
72132;SDS011;60008;50.826;6.896;2023-09-18T07:11:33;4.25;;;1.05;;
72132;SDS011;60008;50.826;6.896;2023-09-18T07:14:25;3.50;;;0.80;;
72132;SDS011;60008;50.826;6.896;2023-09-18T07:17:10;6.60;;;0.80;;
72132;SDS011;60008;50.826;6.896;2023-09-18T07:20:02;2.80;;;0.70;;
72132;SDS011;60008;50.826;6.896;2023-09-18T07:22:58;4.50;;;0.80;;
72132;SDS011;60008;50.826;6.896;2023-09-18T07:25:49;4.18;;;0.90;;
72132;SDS011;60008;50.826;6.896;2023-09-18T07:28:34;2.80;;;0.82;;
72132;SDS011;60008;50.826;6.896;2023-09-18T07:31:25;4.70;;;0.77;;
72132;SDS011;60008;50.826;6.896;2023-09-18T07:34:17;4.10;;;0.70;;
72132;SDS011;60008;50.826;6.896;2023-09-18T07:37:02;3.08;;;0.77;;
72132;SDS011;60008;50.826;6.896;2023-09-18T07:39:54;4.35;;;1.10;;
72132;SDS011;60008;50.826;6.896;2023-09-18T07:42:46;4.88;;;1.10;;
72132;SDS011;60008;50.826;6.896;2023-09-18T07:45:31;3.60;;;0.70;;
72132;SDS011;60008;50.826;6.896;2023-09-18T07:48:22;1.80;;;0.77;;
72132;SDS011;60008;50.826;6.896;2023-09-18T07:51:14;2.10;;;0.80;;
72132;SDS011;60008;50.826;6.896;2023-09-18T07:54:01;3.25;;;0.88;;
72132;SDS011;60008;50.826;6.896;2023-09-18T07:56:52;3.90;;;1.00;;
72132;SDS011;60008;50.826;6.896;2023-09-18T07:59:44;11.93;;;4.47;;
72132;SDS011;60008;50.826;6.896;2023-09-18T08:02:38;7.35;;;1.30;;
72132;SDS011;60008;50.826;6.896;2023-09-18T08:05:30;3.47;;;1.00;;
72132;SDS011;60008;50.826;6.896;2023-09-18T08:08:22;3.13;;;0.90;;
72132;SDS011;60008;50.826;6.896;2023-09-18T08:11:08;2.28;;;0.82;;
72132;SDS011;60008;50.826;6.896;2023-09-18T08:14:07;5.37;;;0.97;;
72132;SDS011;60008;50.826;6.896;2023-09-18T08:17:00;2.03;;;0.70;;
72132;SDS011;60008;50.826;6.896;2023-09-18T08:19:54;2.67;;;0.80;;
72132;SDS011;60008;50.826;6.896;2023-09-18T08:22:40;3.75;;;1.10;;
72132;SDS011;60008;50.826;6.896;2023-09-18T08:25:32;5.53;;;0.80;;
72132;SDS011;60008;50.826;6.896;2023-09-18T08:28:17;4.57;;;0.70;;
72132;SDS011;60008;50.826;6.896;2023-09-18T08:31:09;2.67;;;0.77;;
72132;SDS011;60008;50.826;6.896;2023-09-18T08:33:55;2.15;;;0.73;;
72132;SDS011;60008;50.826;6.896;2023-09-18T08:36:46;5.72;;;1.00;;
72132;SDS011;60008;50.826;6.896;2023-09-18T08:39:31;4.47;;;1.00;;
72132;SDS011;60008;50.826;6.896;2023-09-18T08:42:23;3.63;;;0.70;;
72132;SDS011;60008;50.826;6.896;2023-09-18T08:45:27;2.42;;;0.77;;
72132;SDS011;60008;50.826;6.896;2023-09-18T08:48:20;3.67;;;1.00;;
72132;SDS011;60008;50.826;6.896;2023-09-18T08:51:12;1.35;;;0.50;;
72132;SDS011;60008;50.826;6.896;2023-09-18T08:54:04;2.13;;;0.80;;
72132;SDS011;60008;50.826;6.896;2023-09-18T08:56:57;5.07;;;0.90;;
72132;SDS011;60008;50.826;6.896;2023-09-18T08:59:43;2.35;;;0.73;;
72132;SDS011;60008;50.826;6.896;2023-09-18T09:02:35;1.73;;;0.77;;
72132;SDS011;60008;50.826;6.896;2023-09-18T09:05:21;3.85;;;0.73;;
72132;SDS011;60008;50.826;6.896;2023-09-18T09:08:13;1.67;;;0.57;;
72132;SDS011;60008;50.826;6.896;2023-09-18T09:11:06;2.17;;;0.60;;
72132;SDS011;60008;50.826;6.896;2023-09-18T09:14:11;4.03;;;0.70;;
72132;SDS011;60008;50.826;6.896;2023-09-18T09:17:02;6.45;;;0.88;;
72132;SDS011;60008;50.826;6.896;2023-09-18T09:20:05;2.38;;;0.90;;
72132;SDS011;60008;50.826;6.896;2023-09-18T09:23:04;2.78;;;0.80;;
72132;SDS011;60008;50.826;6.896;2023-09-18T09:25:51;2.10;;;0.90;;
72132;SDS011;60008;50.826;6.896;2023-09-18T09:28:44;2.75;;;1.00;;
72132;SDS011;60008;50.826;6.896;2023-09-18T09:31:29;2.42;;;0.60;;
72132;SDS011;60008;50.826;6.896;2023-09-18T09:34:25;2.25;;;0.50;;
72132;SDS011;60008;50.826;6.896;2023-09-18T09:37:11;1.55;;;0.57;;
72132;SDS011;60008;50.826;6.896;2023-09-18T09:40:05;1.77;;;0.60;;
72132;SDS011;60008;50.826;6.896;2023-09-18T09:42:54;4.18;;;1.00;;
72132;SDS011;60008;50.826;6.896;2023-09-18T09:45:56;3.90;;;0.88;;
72132;SDS011;60008;50.826;6.896;2023-09-18T09:49:01;4.15;;;1.00;;
72132;SDS011;60008;50.826;6.896;2023-09-18T09:51:54;1.45;;;0.60;;
72132;SDS011;60008;50.826;6.896;2023-09-18T09:54:39;1.50;;;0.63;;
72132;SDS011;60008;50.826;6.896;2023-09-18T09:57:38;1.27;;;0.45;;
72132;SDS011;60008;50.826;6.896;2023-09-18T10:00:49;6.55;;;0.95;;
72132;SDS011;60008;50.826;6.896;2023-09-18T10:03:45;4.15;;;0.73;;
72132;SDS011;60008;50.826;6.896;2023-09-18T10:06:38;4.88;;;1.00;;
72132;SDS011;60008;50.826;6.896;2023-09-18T10:09:38;1.83;;;0.93;;
72132;SDS011;60008;50.826;6.896;2023-09-18T10:12:45;2.83;;;0.90;;
72132;SDS011;60008;50.826;6.896;2023-09-18T10:15:34;2.97;;;0.80;;
72132;SDS011;60008;50.826;6.896;2023-09-18T10:18:38;2.45;;;1.10;;
72132;SDS011;60008;50.826;6.896;2023-09-18T10:24:40;2.67;;;0.93;;
72132;SDS011;60008;50.826;6.896;2023-09-18T10:27:32;2.13;;;0.98;;
72132;SDS011;60008;50.826;6.896;2023-09-18T10:30:18;4.13;;;1.20;;
72132;SDS011;60008;50.826;6.896;2023-09-18T10:33:13;1.98;;;0.98;;
72132;SDS011;60008;50.826;6.896;2023-09-18T10:35:59;3.13;;;1.05;;
72132;SDS011;60008;50.826;6.896;2023-09-18T10:38:52;2.67;;;1.37;;
72132;SDS011;60008;50.826;6.896;2023-09-18T10:41:40;2.42;;;0.85;;
72132;SDS011;60008;50.826;6.896;2023-09-18T10:44:32;2.42;;;0.98;;
72132;SDS011;60008;50.826;6.896;2023-09-18T10:47:19;2.67;;;1.27;;
72132;SDS011;60008;50.826;6.896;2023-09-18T10:50:11;1.88;;;0.93;;
72132;SDS011;60008;50.826;6.896;2023-09-18T10:52:57;2.47;;;1.10;;
72132;SDS011;60008;50.826;6.896;2023-09-18T10:55:50;3.17;;;1.05;;
72132;SDS011;60008;50.826;6.896;2023-09-18T10:58:43;3.20;;;1.55;;
72132;SDS011;60008;50.826;6.896;2023-09-18T11:01:29;2.83;;;1.15;;
72132;SDS011;60008;50.826;6.896;2023-09-18T11:04:22;2.33;;;0.95;;
72132;SDS011;60008;50.826;6.896;2023-09-18T11:07:08;3.80;;;1.40;;
72132;SDS011;60008;50.826;6.896;2023-09-18T11:10:00;1.92;;;1.00;;
72132;SDS011;60008;50.826;6.896;2023-09-18T11:13:29;3.55;;;1.23;;
72132;SDS011;60008;50.826;6.896;2023-09-18T11:19:16;2.85;;;1.00;;
72132;SDS011;60008;50.826;6.896;2023-09-18T11:22:09;1.40;;;0.83;;
72132;SDS011;60008;50.826;6.896;2023-09-18T11:25:47;3.05;;;0.90;;
72132;SDS011;60008;50.826;6.896;2023-09-18T11:28:22;2.38;;;1.05;;
72132;SDS011;60008;50.826;6.896;2023-09-18T11:31:18;2.00;;;0.98;;
72132;SDS011;60008;50.826;6.896;2023-09-18T11:34:13;3.28;;;1.40;;
72132;SDS011;60008;50.826;6.896;2023-09-18T11:37:21;1.83;;;1.03;;
72132;SDS011;60008;50.826;6.896;2023-09-18T11:40:33;3.17;;;0.70;;
72132;SDS011;60008;50.826;6.896;2023-09-18T11:43:24;2.13;;;1.20;;
72132;SDS011;60008;50.826;6.896;2023-09-18T11:46:20;2.25;;;0.85;;
72132;SDS011;60008;50.826;6.896;2023-09-18T11:49:07;3.05;;;0.95;;
72132;SDS011;60008;50.826;6.896;2023-09-18T11:52:04;2.47;;;0.97;;
72132;SDS011;60008;50.826;6.896;2023-09-18T11:54:50;3.30;;;0.95;;
72132;SDS011;60008;50.826;6.896;2023-09-18T11:57:42;2.20;;;1.00;;
72132;SDS011;60008;50.826;6.896;2023-09-18T12:00:28;2.75;;;1.10;;
72132;SDS011;60008;50.826;6.896;2023-09-18T12:03:22;4.60;;;1.23;;
72132;SDS011;60008;50.826;6.896;2023-09-18T12:06:11;1.60;;;0.77;;
72132;SDS011;60008;50.826;6.896;2023-09-18T12:09:07;1.48;;;0.70;;
72132;SDS011;60008;50.826;6.896;2023-09-18T12:11:59;3.25;;;1.00;;
72132;SDS011;60008;50.826;6.896;2023-09-18T12:14:53;3.33;;;1.27;;
72132;SDS011;60008;50.826;6.896;2023-09-18T12:17:44;2.45;;;0.90;;
72132;SDS011;60008;50.826;6.896;2023-09-18T12:20:30;2.43;;;1.10;;
72132;SDS011;60008;50.826;6.896;2023-09-18T12:23:26;1.77;;;0.75;;
72132;SDS011;60008;50.826;6.896;2023-09-18T12:26:12;2.97;;;0.90;;
72132;SDS011;60008;50.826;6.896;2023-09-18T12:29:05;4.07;;;1.10;;
72132;SDS011;60008;50.826;6.896;2023-09-18T12:31:52;2.35;;;0.90;;
72132;SDS011;60008;50.826;6.896;2023-09-18T12:34:43;2.83;;;1.20;;
72132;SDS011;60008;50.826;6.896;2023-09-18T12:37:28;5.35;;;0.90;;
72132;SDS011;60008;50.826;6.896;2023-09-18T12:40:21;3.47;;;0.73;;
72132;SDS011;60008;50.826;6.896;2023-09-18T12:43:07;2.88;;;1.10;;
72132;SDS011;60008;50.826;6.896;2023-09-18T12:45:59;1.35;;;0.65;;
72132;SDS011;60008;50.826;6.896;2023-09-18T12:48:45;1.80;;;1.00;;
72132;SDS011;60008;50.826;6.896;2023-09-18T12:51:37;2.03;;;0.93;;
72132;SDS011;60008;50.826;6.896;2023-09-18T12:54:36;4.78;;;0.90;;
72132;SDS011;60008;50.826;6.896;2023-09-18T12:57:36;2.60;;;0.95;;
72132;SDS011;60008;50.826;6.896;2023-09-18T13:00:30;2.08;;;1.02;;
72132;SDS011;60008;50.826;6.896;2023-09-18T13:03:22;2.07;;;0.90;;
72132;SDS011;60008;50.826;6.896;2023-09-18T13:06:11;3.13;;;1.13;;
72132;SDS011;60008;50.826;6.896;2023-09-18T13:09:19;2.03;;;0.75;;
72132;SDS011;60008;50.826;6.896;2023-09-18T13:12:19;2.40;;;0.90;;
72132;SDS011;60008;50.826;6.896;2023-09-18T13:15:30;2.00;;;0.80;;
72132;SDS011;60008;50.826;6.896;2023-09-18T13:18:16;2.07;;;0.90;;
72132;SDS011;60008;50.826;6.896;2023-09-18T13:21:15;2.20;;;1.17;;
72132;SDS011;60008;50.826;6.896;2023-09-18T13:24:08;2.08;;;1.00;;
72132;SDS011;60008;50.826;6.896;2023-09-18T13:27:10;1.80;;;0.98;;
72132;SDS011;60008;50.826;6.896;2023-09-18T13:30:02;1.67;;;1.00;;
72132;SDS011;60008;50.826;6.896;2023-09-18T13:32:51;3.30;;;1.00;;
72132;SDS011;60008;50.826;6.896;2023-09-18T13:35:53;4.10;;;1.08;;
72132;SDS011;60008;50.826;6.896;2023-09-18T13:38:40;2.15;;;0.73;;
72132;SDS011;60008;50.826;6.896;2023-09-18T13:41:33;1.52;;;0.88;;
72132;SDS011;60008;50.826;6.896;2023-09-18T13:44:25;3.88;;;1.02;;
72132;SDS011;60008;50.826;6.896;2023-09-18T13:47:10;2.23;;;0.90;;
72132;SDS011;60008;50.826;6.896;2023-09-18T13:50:02;2.47;;;0.98;;
72132;SDS011;60008;50.826;6.896;2023-09-18T13:52:55;1.90;;;1.02;;
72132;SDS011;60008;50.826;6.896;2023-09-18T13:55:47;1.70;;;0.90;;
72132;SDS011;60008;50.826;6.896;2023-09-18T13:58:33;2.88;;;1.15;;
72132;SDS011;60008;50.826;6.896;2023-09-18T14:01:24;2.40;;;1.00;;
72132;SDS011;60008;50.826;6.896;2023-09-18T14:04:11;2.30;;;0.85;;
72132;SDS011;60008;50.826;6.896;2023-09-18T14:07:04;2.45;;;1.00;;
72132;SDS011;60008;50.826;6.896;2023-09-18T14:09:49;2.40;;;1.00;;
72132;SDS011;60008;50.826;6.896;2023-09-18T14:12:48;1.63;;;0.82;;
72132;SDS011;60008;50.826;6.896;2023-09-18T14:15:35;2.40;;;0.93;;
72132;SDS011;60008;50.826;6.896;2023-09-18T14:18:29;3.72;;;1.10;;
72132;SDS011;60008;50.826;6.896;2023-09-18T14:21:14;2.08;;;0.88;;
72132;SDS011;60008;50.826;6.896;2023-09-18T14:24:06;3.10;;;1.00;;
72132;SDS011;60008;50.826;6.896;2023-09-18T14:27:00;2.00;;;1.00;;
72132;SDS011;60008;50.826;6.896;2023-09-18T14:29:46;3.00;;;1.03;;
72132;SDS011;60008;50.826;6.896;2023-09-18T14:32:37;2.63;;;1.05;;
72132;SDS011;60008;50.826;6.896;2023-09-18T14:35:23;4.10;;;0.90;;
72132;SDS011;60008;50.826;6.896;2023-09-18T14:38:14;2.78;;;1.10;;
72132;SDS011;60008;50.826;6.896;2023-09-18T14:40:59;4.50;;;1.45;;
72132;SDS011;60008;50.826;6.896;2023-09-18T14:43:54;1.93;;;0.80;;
72132;SDS011;60008;50.826;6.896;2023-09-18T14:46:39;4.05;;;1.10;;
72132;SDS011;60008;50.826;6.896;2023-09-18T14:49:30;3.13;;;1.30;;
72132;SDS011;60008;50.826;6.896;2023-09-18T14:52:17;2.08;;;0.82;;
72132;SDS011;60008;50.826;6.896;2023-09-18T14:55:09;3.35;;;1.00;;
72132;SDS011;60008;50.826;6.896;2023-09-18T14:57:58;1.83;;;0.90;;
72132;SDS011;60008;50.826;6.896;2023-09-18T15:00:49;3.22;;;0.90;;
72132;SDS011;60008;50.826;6.896;2023-09-18T15:03:35;1.77;;;0.90;;
72132;SDS011;60008;50.826;6.896;2023-09-18T15:06:26;2.03;;;1.17;;
72132;SDS011;60008;50.826;6.896;2023-09-18T15:09:12;2.78;;;0.93;;
72132;SDS011;60008;50.826;6.896;2023-09-18T15:12:04;1.90;;;0.80;;
72132;SDS011;60008;50.826;6.896;2023-09-18T15:14:56;1.40;;;0.63;;
72132;SDS011;60008;50.826;6.896;2023-09-18T15:17:48;3.05;;;1.42;;
72132;SDS011;60008;50.826;6.896;2023-09-18T15:20:34;3.00;;;1.15;;
72132;SDS011;60008;50.826;6.896;2023-09-18T15:23:26;3.97;;;1.27;;
72132;SDS011;60008;50.826;6.896;2023-09-18T15:26:12;2.80;;;1.20;;
72132;SDS011;60008;50.826;6.896;2023-09-18T15:29:03;2.53;;;1.10;;
72132;SDS011;60008;50.826;6.896;2023-09-18T15:31:48;2.88;;;1.10;;
72132;SDS011;60008;50.826;6.896;2023-09-18T15:34:40;1.90;;;0.82;;
72132;SDS011;60008;50.826;6.896;2023-09-18T15:37:31;2.95;;;1.40;;
72132;SDS011;60008;50.826;6.896;2023-09-18T15:40:16;2.47;;;1.10;;
72132;SDS011;60008;50.826;6.896;2023-09-18T15:43:12;2.95;;;1.02;;
72132;SDS011;60008;50.826;6.896;2023-09-18T15:45:57;3.28;;;1.38;;
72132;SDS011;60008;50.826;6.896;2023-09-18T15:48:50;4.18;;;1.10;;
72132;SDS011;60008;50.826;6.896;2023-09-18T15:51:36;1.92;;;1.05;;
72132;SDS011;60008;50.826;6.896;2023-09-18T15:54:28;2.80;;;0.97;;
72132;SDS011;60008;50.826;6.896;2023-09-18T15:57:13;1.92;;;1.00;;
72132;SDS011;60008;50.826;6.896;2023-09-18T16:00:06;2.67;;;1.00;;
72132;SDS011;60008;50.826;6.896;2023-09-18T16:02:51;3.35;;;0.88;;
72132;SDS011;60008;50.826;6.896;2023-09-18T16:05:44;2.28;;;1.10;;
72132;SDS011;60008;50.826;6.896;2023-09-18T16:08:36;2.17;;;1.07;;
72132;SDS011;60008;50.826;6.896;2023-09-18T16:11:34;6.03;;;1.27;;
72132;SDS011;60008;50.826;6.896;2023-09-18T16:14:19;3.90;;;1.50;;
72132;SDS011;60008;50.826;6.896;2023-09-18T16:17:11;2.10;;;1.10;;
72132;SDS011;60008;50.826;6.896;2023-09-18T16:20:03;2.17;;;1.20;;
72132;SDS011;60008;50.826;6.896;2023-09-18T16:22:57;1.73;;;0.77;;
72132;SDS011;60008;50.826;6.896;2023-09-18T16:25:48;2.45;;;1.00;;
72132;SDS011;60008;50.826;6.896;2023-09-18T16:28:33;2.67;;;1.20;;
72132;SDS011;60008;50.826;6.896;2023-09-18T16:31:25;2.45;;;0.93;;
72132;SDS011;60008;50.826;6.896;2023-09-18T16:34:17;3.83;;;1.10;;
72132;SDS011;60008;50.826;6.896;2023-09-18T16:37:03;2.30;;;1.20;;
72132;SDS011;60008;50.826;6.896;2023-09-18T16:39:54;2.35;;;0.95;;
72132;SDS011;60008;50.826;6.896;2023-09-18T16:42:39;3.47;;;1.50;;
72132;SDS011;60008;50.826;6.896;2023-09-18T16:45:31;3.53;;;1.10;;
72132;SDS011;60008;50.826;6.896;2023-09-18T16:48:16;2.28;;;0.95;;
72132;SDS011;60008;50.826;6.896;2023-09-18T16:51:08;3.27;;;1.27;;
72132;SDS011;60008;50.826;6.896;2023-09-18T16:53:54;2.40;;;0.95;;
72132;SDS011;60008;50.826;6.896;2023-09-18T16:56:47;2.33;;;0.82;;
72132;SDS011;60008;50.826;6.896;2023-09-18T16:59:32;2.97;;;1.20;;
72132;SDS011;60008;50.826;6.896;2023-09-18T17:02:24;2.55;;;1.20;;
72132;SDS011;60008;50.826;6.896;2023-09-18T17:05:16;2.60;;;1.10;;
72132;SDS011;60008;50.826;6.896;2023-09-18T17:08:07;2.67;;;0.98;;
72132;SDS011;60008;50.826;6.896;2023-09-18T17:10:52;2.60;;;0.90;;
72132;SDS011;60008;50.826;6.896;2023-09-18T17:13:43;2.72;;;1.00;;
72132;SDS011;60008;50.826;6.896;2023-09-18T17:16:42;4.03;;;1.08;;